.
WxDataArchive / Data Records for 2006-11-29
2006-11-28 November 2006 2006-11-30

Data Records for Wednesday, 29 November 2006

Time	Temp	Chill	HIndex	Humid	Dewpt	 Wind 	HiWind	WindDir	Rain 	Barom 
-----	----	-----	------	-----	-----	------	------	-------	-----	----- 
00:00	56.9	56.9	56.9	84	52.1	2	6	112	0.00	29.986 
00:05	57.0	57.0	57.0	84	52.2	2	7	90	0.00	29.986 
00:10	57.0	57.0	57.0	84	52.2	2	7	90	0.00	29.986 
00:15	57.2	57.2	57.2	84	52.4	2	6	112	0.00	29.984 
00:20	57.2	57.2	57.2	84	52.4	2	10	270	0.00	29.984 
00:25	57.0	57.0	57.0	84	52.2	1	5	270	0.00	29.984 
00:30	57.0	57.0	57.0	84	52.2	1	6	45	0.00	29.989 
00:35	56.7	56.7	56.7	85	52.2	1	4	22	0.00	29.989 
00:40	56.6	56.6	56.6	85	52.1	1	5	68	0.00	29.989 
00:45	56.5	56.5	56.5	85	52.0	1	5	45	0.00	29.991 
00:50	56.6	56.6	56.6	86	52.5	1	4	68	0.00	29.991 
00:55	56.6	56.6	56.6	86	52.5	2	5	248	0.00	29.991 
01:00	56.7	56.7	56.7	86	52.6	1	3	22	0.00	29.992 
01:05	56.9	56.9	56.9	86	52.8	1	4	248	0.00	29.992 
01:10	57.0	57.0	57.0	86	52.9	2	5	225	0.00	29.992 
01:15	57.0	57.0	57.0	86	52.9	1	6	248	0.00	29.994 
01:20	57.2	57.2	57.2	86	53.0	1	4	248	0.00	29.994 
01:25	57.2	57.2	57.2	86	53.0	1	6	45	0.00	29.994 
01:30	57.3	57.3	57.3	86	53.1	1	3	270	0.00	29.991 
01:35	57.3	57.3	57.3	86	53.1	1	4	315	0.00	29.991 
01:40	57.3	57.3	57.3	87	53.5	1	5	68	0.00	29.991 
01:45	57.5	57.5	57.5	87	53.7	1	4	248	0.00	29.980 
01:50	57.5	57.5	57.5	87	53.7	1	4	292	0.00	29.980 
01:55	57.5	57.5	57.5	87	53.7	2	4	22	0.00	29.980 
02:00	57.3	57.3	57.3	87	53.5	1	4	68	0.00	29.979 
02:05	57.2	57.2	57.2	87	53.4	2	5	135	0.00	29.979 
02:10	57.0	57.0	57.0	87	53.2	1	5	68	0.00	29.979 
02:15	57.0	57.0	57.0	88	53.5	1	5	270	0.00	29.977 
02:20	56.9	56.9	56.9	88	53.4	1	4	315	0.00	29.977 
02:25	56.7	56.7	56.7	88	53.2	2	4	112	0.00	29.977 
02:30	56.7	56.7	56.7	88	53.2	2	5	90	0.00	29.978 
02:35	56.7	56.7	56.7	88	53.2	2	5	248	0.00	29.978 
02:40	56.9	56.9	56.9	88	53.4	2	7	248	0.00	29.978 
02:45	57.0	57.0	57.0	88	53.5	1	3	225	0.00	29.988 
02:50	57.0	57.0	57.0	88	53.5	1	4	248	0.00	29.988 
02:55	57.2	57.2	57.2	88	53.7	1	6	248	0.00	29.988 
03:00	57.2	57.2	57.2	88	53.7	2	6	248	0.00	29.989 
03:05	57.2	57.2	57.2	88	53.7	2	7	248	0.00	29.989 
03:10	57.0	57.0	57.0	87	53.2	1	4	248	0.00	29.989 
03:15	57.0	57.0	57.0	88	53.5	1	4	248	0.00	29.991 
03:20	57.0	57.0	57.0	88	53.5	2	6	248	0.00	29.991 
03:25	57.0	57.0	57.0	88	53.5	1	3	270	0.00	29.991 
03:30	57.2	57.2	57.2	88	53.7	2	5	0	0.00	29.993 
03:35	57.2	57.2	57.2	88	53.7	2	6	248	0.00	29.993 
03:40	57.3	57.3	57.3	88	53.8	3	6	270	0.00	29.993 
03:45	57.5	57.5	57.5	88	54.0	2	5	248	0.00	29.992 
03:50	57.5	57.5	57.5	88	54.0	1	5	112	0.00	29.992 
03:55	57.6	57.6	57.6	88	54.1	1	7	202	0.00	29.992 
04:00	57.6	57.6	57.6	88	54.1	2	4	68	0.00	29.987 
04:05	57.6	57.6	57.6	88	54.1	2	7	68	0.00	29.987 
04:10	57.8	57.8	57.8	88	54.3	2	4	248	0.00	29.987 
04:15	57.8	57.8	57.8	88	54.3	2	7	68	0.00	29.984 
04:20	57.8	57.8	57.8	88	54.3	2	10	248	0.00	29.984 
04:25	58.0	58.0	58.0	87	54.1	2	6	45	0.00	29.984 
04:30	58.0	58.0	58.0	88	54.5	1	2	315	0.00	29.982 
04:35	57.8	57.8	57.8	88	54.3	2	8	90	0.00	29.982 
04:40	58.0	58.0	58.0	88	54.5	1	3	270	0.00	29.982 
04:45	58.0	58.0	58.0	88	54.5	2	5	270	0.00	29.985 
04:50	58.0	58.0	58.0	88	54.5	2	5	248	0.00	29.985 
04:55	58.0	58.0	58.0	88	54.5	1	6	248	0.00	29.985 
05:00	58.0	58.0	58.0	89	54.8	2	9	248	0.00	29.987 
05:05	58.0	58.0	58.0	89	54.8	2	7	248	0.00	29.987 
05:10	57.8	57.8	57.8	90	54.9	2	5	248	0.00	29.987 
05:15	57.8	57.8	57.8	91	55.2	2	6	248	0.00	29.992 
05:20	57.6	57.6	57.6	92	55.3	2	9	248	0.00	29.992 
05:25	57.5	57.5	57.5	92	55.2	1	5	248	0.00	29.992 
05:30	57.3	57.3	57.3	93	55.3	2	5	248	0.00	29.995 
05:35	57.3	57.3	57.3	93	55.3	2	5	248	0.00	29.995 
05:40	57.3	57.3	57.3	94	55.6	2	6	270	0.00	29.995 
05:45	57.2	57.2	57.2	94	55.5	1	3	248	0.00	29.997 
05:50	57.2	57.2	57.2	94	55.5	1	4	270	0.00	29.997 
05:55	57.2	57.2	57.2	94	55.5	2	5	270	0.00	29.997 
06:00	57.3	57.3	57.3	95	55.9	2	5	270	0.00	29.997 
06:05	57.3	57.3	57.3	95	55.9	1	6	248	0.00	29.997 
06:10	57.3	57.3	57.3	95	55.9	1	5	248	0.00	29.997 
06:15	57.3	57.3	57.3	95	55.9	1	5	248	0.00	29.997 
06:20	57.5	57.5	57.5	95	56.1	1	3	158	0.00	29.997 
06:25	57.5	57.5	57.5	95	56.1	1	3	248	0.00	29.997 
06:30	57.5	57.5	57.5	95	56.1	1	5	0	0.00	29.992 
06:35	57.5	57.5	57.5	95	56.1	1	5	90	0.00	29.992 
06:40	57.6	57.6	57.6	95	56.2	1	5	248	0.00	29.992 
06:45	57.6	57.6	57.6	95	56.2	1	4	248	0.00	29.996 
06:50	57.8	57.8	57.8	95	56.4	1	4	248	0.00	29.996 
06:55	58.0	58.0	58.0	95	56.6	2	6	248	0.00	29.996 
07:00	58.0	58.0	58.0	95	56.6	1	4	248	0.00	29.997 
07:05	58.0	58.0	58.0	95	56.6	1	3	248	0.00	29.997 
07:10	58.1	58.1	58.1	94	56.4	1	4	248	0.00	29.997 
07:15	58.1	58.1	58.1	94	56.4	1	4	248	0.00	29.999 
07:20	58.3	58.3	58.3	94	56.6	1	6	248	0.00	29.999 
07:25	58.3	58.3	58.3	94	56.6	2	10	270	0.00	29.999 
07:30	58.4	58.4	58.4	94	56.7	1	5	270	0.00	30.000 
07:35	58.4	58.4	58.4	94	56.7	1	4	248	0.00	30.000 
07:40	58.4	58.4	58.4	94	56.7	1	5	248	0.00	30.000 
07:45	58.4	58.4	58.4	94	56.7	1	5	270	0.00	29.998 
07:50	58.6	58.6	58.6	94	56.9	1	4	248	0.00	29.998 
07:55	58.6	58.6	58.6	94	56.9	1	5	248	0.00	29.998 
08:00	58.7	58.7	58.7	93	56.7	1	6	248	0.00	29.997 
08:05	58.9	58.9	58.9	93	56.9	2	9	270	0.00	29.997 
08:10	58.9	58.9	58.9	93	56.9	1	4	248	0.00	29.997 
08:15	59.0	59.0	59.0	93	57.0	2	5	248	0.00	29.998 
08:20	59.0	59.0	59.0	92	56.7	1	5	248	0.00	29.998 
08:25	59.2	59.2	59.2	92	56.9	1	4	270	0.00	29.998 
08:30	59.2	59.2	59.2	92	56.9	1	3	248	0.00	30.001 
08:35	59.3	59.3	59.3	92	57.0	1	3	270	0.00	30.001 
08:40	59.3	59.3	59.3	92	57.0	2	5	248	0.00	30.001 
08:45	59.5	59.5	59.5	92	57.2	2	5	248	0.00	30.009 
08:50	59.5	59.5	59.5	91	56.9	2	5	90	0.00	30.009 
08:55	59.5	59.5	59.5	91	56.9	1	5	270	0.00	30.009 
09:00	59.5	59.5	59.5	91	56.9	2	6	248	0.00	30.011 
09:05	59.6	59.6	59.6	91	57.0	2	9	90	0.00	30.011 
09:10	59.8	59.8	59.8	91	57.2	2	7	90	0.00	30.011 
09:15	59.8	59.8	59.8	90	56.9	2	6	112	0.00	30.010 
09:20	59.8	59.8	59.8	90	56.9	1	4	248	0.00	30.010 
09:25	59.8	59.8	59.8	90	56.9	2	9	45	0.00	30.010 
09:30	59.9	59.9	59.9	90	57.0	1	5	248	0.00	30.011 
09:35	59.9	59.9	59.9	89	56.6	2	4	248	0.00	30.011 
09:40	60.1	60.1	60.1	89	56.8	3	7	248	0.00	30.011 
09:45	60.1	60.1	60.1	89	56.8	2	9	248	0.00	30.014 
09:50	60.2	60.2	60.2	88	56.6	2	6	270	0.00	30.014 
09:55	60.2	60.2	60.2	88	56.6	2	10	292	0.00	30.014 
10:00	60.4	60.4	60.4	88	56.8	1	6	135	0.00	30.014 
10:05	60.5	60.5	60.5	88	56.9	2	11	90	0.00	30.014 
10:10	60.5	60.5	60.5	88	56.9	3	7	248	0.00	30.014 
10:15	60.7	60.7	60.7	88	57.1	3	10	248	0.00	30.013 
10:20	60.9	60.9	60.9	87	57.0	2	9	315	0.00	30.013 
10:25	61.0	61.0	61.0	87	57.1	2	7	68	0.00	30.013 
10:30	61.2	61.2	61.2	87	57.3	2	6	270	0.00	30.010 
10:35	61.3	61.3	61.3	87	57.4	2	5	90	0.00	30.010 
10:40	61.3	61.3	61.3	86	57.1	3	10	68	0.00	30.010 
10:45	61.6	61.6	61.6	86	57.4	1	4	270	0.00	30.007 
10:50	61.6	61.6	61.6	86	57.4	2	5	22	0.00	30.007 
10:55	62.0	62.0	62.0	85	57.4	3	10	248	0.00	30.007 
11:00	62.0	62.0	62.0	85	57.4	2	10	248	0.00	30.006 
11:05	62.1	62.1	62.1	85	57.5	3	9	112	0.00	30.006 
11:10	62.3	62.3	62.3	85	57.7	2	6	270	0.00	30.006 
11:15	62.6	62.6	62.6	84	57.7	3	7	248	0.00	30.003 
11:20	62.9	62.9	62.9	84	58.0	3	7	248	0.00	30.003 
11:25	63.2	63.2	63.2	84	58.3	2	10	270	0.00	30.003 
11:30	63.5	63.5	63.5	83	58.2	4	10	270	0.00	29.994 
11:35	63.7	63.7	63.7	83	58.4	3	6	248	0.00	29.994 
11:40	63.9	63.9	63.9	83	58.6	3	9	248	0.00	29.994 
11:45	63.9	63.9	63.9	82	58.3	3	7	270	0.00	29.991 
11:50	63.7	63.7	63.7	82	58.1	3	13	248	0.00	29.991 
11:55	63.4	63.4	63.4	83	58.1	3	9	225	0.00	29.991 
12:00	63.2	63.2	63.2	83	57.9	3	10	270	0.00	29.980 
12:05	63.1	63.1	63.1	84	58.2	2	10	90	0.00	29.980 
12:10	62.9	62.9	62.9	84	58.0	2	6	68	0.00	29.980 
12:15	62.7	62.7	62.7	84	57.8	2	4	68	0.00	29.977 
12:20	62.7	62.7	62.7	85	58.1	2	5	90	0.00	29.977 
12:25	62.7	62.7	62.7	85	58.1	3	9	90	0.00	29.977 
12:30	62.7	62.7	62.7	85	58.1	2	6	90	0.00	29.969 
12:35	62.9	62.9	62.9	85	58.3	2	7	68	0.00	29.969 
12:40	63.1	63.1	63.1	84	58.2	2	4	90	0.00	29.969 
12:45	63.1	63.1	63.1	84	58.2	3	10	90	0.00	29.963 
12:50	63.1	63.1	63.1	84	58.2	2	9	270	0.00	29.963 
12:55	63.2	63.2	63.2	85	58.6	2	5	270	0.00	29.963 
13:00	63.4	63.4	63.4	84	58.5	4	13	248	0.00	29.960 
13:05	63.5	63.5	63.5	84	58.6	2	5	270	0.00	29.960 
13:10	63.5	63.5	63.5	84	58.6	2	7	248	0.00	29.960 
13:15	63.5	63.5	63.5	84	58.6	3	10	248	0.00	29.951 
13:20	63.7	63.7	63.7	84	58.8	2	4	68	0.00	29.951 
13:25	63.9	63.9	63.9	83	58.6	3	10	202	0.00	29.951 
13:30	64.0	64.0	64.0	84	59.1	2	6	248	0.00	29.950 
13:35	64.2	64.2	64.2	82	58.6	3	9	270	0.00	29.950 
13:40	64.3	64.3	64.3	82	58.7	3	7	248	0.00	29.950 
13:45	64.3	64.3	64.3	82	58.7	3	7	248	0.00	29.948 
13:50	64.5	64.5	64.5	81	58.5	4	12	270	0.00	29.948 
13:55	64.7	64.7	64.7	81	58.7	3	11	202	0.00	29.948 
14:00	64.8	64.8	64.8	81	58.8	3	7	225	0.00	29.944 
14:05	65.0	65.0	65.0	81	59.0	2	7	225	0.00	29.944 
14:10	65.2	65.2	65.2	80	58.9	3	10	248	0.00	29.944 
14:15	65.2	65.2	65.2	81	59.2	3	8	248	0.00	29.940 
14:20	65.3	65.3	65.3	80	59.0	3	9	248	0.00	29.940 
14:25	65.5	65.5	65.5	79	58.8	3	12	248	0.00	29.940 
14:30	65.3	65.3	65.3	79	58.6	4	10	248	0.00	29.943 
14:35	65.3	65.3	65.3	79	58.6	5	16	248	0.00	29.943 
14:40	65.3	65.3	65.3	79	58.6	5	12	270	0.00	29.943 
14:45	65.3	65.3	65.3	79	58.6	4	12	270	0.00	29.934 
14:50	65.2	65.2	65.2	79	58.5	4	12	248	0.00	29.934 
14:55	65.2	65.2	65.2	79	58.5	5	12	248	0.00	29.934 
15:00	65.0	65.0	65.0	79	58.3	5	12	270	0.00	29.944 
15:05	65.0	65.0	65.0	79	58.3	4	11	270	0.00	29.944 
15:10	64.8	64.8	64.8	80	58.5	3	9	248	0.00	29.944 
15:15	64.8	64.8	64.8	80	58.5	3	8	248	0.00	29.941 
15:20	64.7	64.7	64.7	80	58.4	4	10	248	0.00	29.941 
15:25	64.7	64.7	64.7	80	58.4	5	11	248	0.00	29.941 
15:30	64.5	64.5	64.5	80	58.2	4	14	248	0.00	29.943 
15:35	64.3	64.3	64.3	81	58.3	3	11	270	0.00	29.943 
15:40	64.3	64.3	64.3	81	58.3	3	9	248	0.00	29.943 
15:45	64.2	64.2	64.2	81	58.2	3	9	248	0.00	29.946 
15:50	64.2	64.2	64.2	81	58.2	3	8	248	0.00	29.946 
15:55	64.2	64.2	64.2	81	58.2	3	7	248	0.00	29.946 
16:00	64.2	64.2	64.2	82	58.6	3	7	248	0.00	29.949 
16:05	64.0	64.0	64.0	82	58.4	4	11	248	0.00	29.949 
16:10	64.0	64.0	64.0	82	58.4	3	11	270	0.00	29.949 
16:15	64.0	64.0	64.0	82	58.4	3	7	248	0.00	29.953 
16:20	64.0	64.0	64.0	82	58.4	4	9	248	0.00	29.953 
16:25	63.9	63.9	63.9	82	58.3	3	6	248	0.00	29.953 
16:30	63.9	63.9	63.9	83	58.6	2	7	248	0.00	29.951 
16:35	63.7	63.7	63.7	83	58.4	2	7	248	0.00	29.951 
16:40	63.7	63.7	63.7	83	58.4	2	10	248	0.00	29.951 
16:45	63.7	63.7	63.7	83	58.4	3	9	248	0.00	29.954 
16:50	63.7	63.7	63.7	82	58.1	3	10	270	0.00	29.954 
16:55	63.9	63.9	63.9	82	58.3	3	7	248	0.00	29.954 
17:00	63.9	63.9	63.9	82	58.3	3	10	248	0.00	29.960 
17:05	63.9	63.9	63.9	82	58.3	3	8	248	0.00	29.960 
17:10	63.9	63.9	63.9	82	58.3	3	7	248	0.00	29.960 
17:15	63.7	63.7	63.7	82	58.1	2	7	248	0.00	29.963 
17:20	63.7	63.7	63.7	82	58.1	2	9	248	0.00	29.963 
17:25	63.5	63.5	63.5	82	57.9	2	6	270	0.00	29.963 
17:30	63.4	63.4	63.4	83	58.1	3	6	248	0.00	29.962 
17:35	63.4	63.4	63.4	83	58.1	3	7	248	0.00	29.962 
17:40	63.2	63.2	63.2	83	57.9	2	6	270	0.00	29.962 
17:45	63.2	63.2	63.2	83	57.9	1	4	270	0.00	29.966 
17:50	63.1	63.1	63.1	84	58.2	2	6	248	0.00	29.966 
17:55	63.1	63.1	63.1	84	58.2	1	3	0	0.00	29.966 
18:00	62.9	62.9	62.9	84	58.0	1	4	225	0.00	29.965 
18:05	62.9	62.9	62.9	84	58.0	2	7	248	0.00	29.965 
18:10	62.9	62.9	62.9	84	58.0	2	5	270	0.00	29.965 
18:15	62.9	62.9	62.9	84	58.0	1	4	270	0.00	29.970 
18:20	62.9	62.9	62.9	84	58.0	1	10	248	0.00	29.970 
18:25	63.1	63.1	63.1	84	58.2	2	5	248	0.00	29.970 
18:30	62.9	62.9	62.9	84	58.0	2	7	248	0.00	29.973 
18:35	62.9	62.9	62.9	85	58.3	3	6	248	0.00	29.973 
18:40	62.7	62.7	62.7	86	58.4	3	7	270	0.00	29.973 
18:45	62.6	62.6	62.6	86	58.3	2	10	248	0.00	29.976 
18:50	62.4	62.4	62.4	87	58.5	3	10	248	0.00	29.976 
18:55	62.4	62.4	62.4	87	58.5	3	5	248	0.00	29.976 
19:00	62.3	62.3	62.3	88	58.7	2	10	248	0.00	29.975 
19:05	62.1	62.1	62.1	88	58.5	3	11	248	0.00	29.975 
19:10	62.1	62.1	62.1	88	58.5	3	7	248	0.00	29.975 
19:15	62.1	62.1	62.1	88	58.5	2	7	270	0.00	29.974 
19:20	62.1	62.1	62.1	88	58.5	2	5	248	0.00	29.974 
19:25	62.1	62.1	62.1	88	58.5	1	3	248	0.00	29.974 
19:30	62.0	62.0	62.0	88	58.4	2	5	248	0.00	29.972 
19:35	62.0	62.0	62.0	88	58.4	1	2	292	0.00	29.972 
19:40	61.8	61.8	61.8	88	58.2	1	3	338	0.00	29.972 
19:45	61.8	61.8	61.8	89	58.5	1	5	0	0.00	29.963 
19:50	61.6	61.6	61.6	88	58.0	1	3	45	0.00	29.963 
19:55	61.6	61.6	61.6	88	58.0	1	3	270	0.00	29.963 
20:00	61.6	61.6	61.6	88	58.0	2	5	225	0.00	29.963 
20:05	61.5	61.5	61.5	88	57.9	2	7	248	0.00	29.963 
20:10	61.5	61.5	61.5	88	57.9	2	4	248	0.00	29.963 
20:15	61.6	61.6	61.6	89	58.3	2	5	248	0.00	29.961 
20:20	61.6	61.6	61.6	88	58.0	1	6	248	0.00	29.961 
20:25	61.8	61.8	61.8	88	58.2	2	5	225	0.00	29.961 
20:30	61.8	61.8	61.8	88	58.2	2	6	248	0.00	29.960 
20:35	61.8	61.8	61.8	88	58.2	2	6	248	0.00	29.960 
20:40	61.6	61.6	61.6	88	58.0	1	4	270	0.00	29.960 
20:45	61.6	61.6	61.6	88	58.0	1	3	270	0.00	29.961 
20:50	61.5	61.5	61.5	88	57.9	1	5	270	0.00	29.961 
20:55	61.5	61.5	61.5	88	57.9	1	4	225	0.00	29.961 
21:00	61.3	61.3	61.3	88	57.7	1	3	135	0.00	29.960 
21:05	61.3	61.3	61.3	88	57.7	1	4	270	0.00	29.960 
21:10	61.5	61.5	61.5	88	57.9	1	5	248	0.00	29.960 
21:15	61.6	61.6	61.6	88	58.0	1	4	270	0.00	29.958 
21:20	61.5	61.5	61.5	88	57.9	1	2	22	0.00	29.958 
21:25	61.5	61.5	61.5	88	57.9	1	3	112	0.00	29.958 
21:30	61.5	61.5	61.5	88	57.9	1	6	90	0.00	29.953 
21:35	61.6	61.6	61.6	88	58.0	1	3	315	0.00	29.953 
21:40	61.6	61.6	61.6	88	58.0	1	5	22	0.00	29.953 
21:45	61.8	61.8	61.8	88	58.2	1	4	112	0.00	29.948 
21:50	61.8	61.8	61.8	87	57.9	1	4	22	0.00	29.948 
21:55	61.8	61.8	61.8	87	57.9	1	3	338	0.00	29.948 
22:00	61.8	61.8	61.8	87	57.9	1	5	270	0.00	29.945 
22:05	61.8	61.8	61.8	87	57.9	1	3	112	0.00	29.945 
22:10	61.6	61.6	61.6	87	57.7	1	3	338	0.00	29.945 
22:15	61.6	61.6	61.6	87	57.7	1	4	90	0.00	29.940 
22:20	61.5	61.5	61.5	87	57.6	1	3	68	0.00	29.940 
22:25	61.3	61.3	61.3	87	57.4	1	5	22	0.00	29.940 
22:30	61.3	61.3	61.3	87	57.4	1	3	90	0.00	29.934 
22:35	61.3	61.3	61.3	87	57.4	2	5	68	0.00	29.934 
22:40	61.3	61.3	61.3	87	57.4	1	3	68	0.00	29.934 
22:45	61.3	61.3	61.3	87	57.4	2	5	90	0.00	29.929 
22:50	61.3	61.3	61.3	87	57.4	1	5	135	0.00	29.929 
22:55	61.3	61.3	61.3	87	57.4	1	3	90	0.00	29.929 
23:00	61.3	61.3	61.3	87	57.4	1	3	90	0.00	29.928 
23:05	61.2	61.2	61.2	87	57.3	1	3	135	0.00	29.928 
23:10	61.3	61.3	61.3	86	57.1	2	5	112	0.00	29.928 
23:15	61.3	61.3	61.3	86	57.1	2	5	45	0.00	29.922 
23:20	61.3	61.3	61.3	85	56.7	2	4	90	0.00	29.922 
23:25	61.3	61.3	61.3	85	56.7	2	9	112	0.00	29.922 
23:30	61.3	61.3	61.3	85	56.7	2	5	68	0.00	29.913 
23:35	61.3	61.3	61.3	84	56.4	2	7	112	0.00	29.913 
23:40	61.5	61.5	61.5	84	56.6	2	5	68	0.00	29.913 
23:45	61.5	61.5	61.5	84	56.6	2	9	112	0.00	29.908 
23:50	61.5	61.5	61.5	83	56.3	3	9	112	0.00	29.908 
23:55	61.5	61.5	61.5	83	56.3	2	5	112	0.00	29.908 

CoCoRaHS
IN-AL-39
A2 Web Hosting
Creative Commons License
GoDaddy
Look for:

loaded 2017-10-19 20:19:00 • last modified 2010-11-18 10:43:29
Privacy PolicyDisclaimer
• wx.awcolley.com is powered by PmWiki v.2002016 •
• all content (unless otherwise noted) © 2017 A W Colley